sensor_id;sensor_type;location;lat;lon;timestamp;temperature;humidity
47434;SHT31;33184;48.774;8.918;2023-03-30T00:02:07;14.16;59.69
47434;SHT31;33184;48.774;8.918;2023-03-30T00:07:28;14.09;60.26
47434;SHT31;33184;48.774;8.918;2023-03-30T00:12:51;14.13;60.31
47434;SHT31;33184;48.774;8.918;2023-03-30T00:18:12;14.16;60.33
47434;SHT31;33184;48.774;8.918;2023-03-30T00:23:33;14.07;61.25
47434;SHT31;33184;48.774;8.918;2023-03-30T00:28:54;14.03;61.67
47434;SHT31;33184;48.774;8.918;2023-03-30T00:34:15;14.01;61.75
47434;SHT31;33184;48.774;8.918;2023-03-30T00:39:35;14.18;61.29
47434;SHT31;33184;48.774;8.918;2023-03-30T00:50:48;14.09;61.82
47434;SHT31;33184;48.774;8.918;2023-03-30T00:56:10;13.97;62.60
47434;SHT31;33184;48.774;8.918;2023-03-30T01:01:33;14.01;62.96
47434;SHT31;33184;48.774;8.918;2023-03-30T01:06:57;13.96;63.33
47434;SHT31;33184;48.774;8.918;2023-03-30T01:12:19;13.87;63.62
47434;SHT31;33184;48.774;8.918;2023-03-30T01:29:05;13.49;69.21
47434;SHT31;33184;48.774;8.918;2023-03-30T01:40:23;13.24;71.43
47434;SHT31;33184;48.774;8.918;2023-03-30T01:45:56;13.19;71.63
47434;SHT31;33184;48.774;8.918;2023-03-30T01:51:29;13.05;73.44
47434;SHT31;33184;48.774;8.918;2023-03-30T01:57:11;12.91;74.60
47434;SHT31;33184;48.774;8.918;2023-03-30T02:02:33;12.80;75.18
47434;SHT31;33184;48.774;8.918;2023-03-30T02:08:00;12.78;74.94
47434;SHT31;33184;48.774;8.918;2023-03-30T02:13:23;12.83;74.73
47434;SHT31;33184;48.774;8.918;2023-03-30T02:18:45;12.93;73.97
47434;SHT31;33184;48.774;8.918;2023-03-30T02:24:11;12.91;73.87
47434;SHT31;33184;48.774;8.918;2023-03-30T02:29:40;12.91;73.91
47434;SHT31;33184;48.774;8.918;2023-03-30T02:41:12;12.95;74.29
47434;SHT31;33184;48.774;8.918;2023-03-30T03:03:36;12.60;78.99
47434;SHT31;33184;48.774;8.918;2023-03-30T03:08:58;12.50;79.22
47434;SHT31;33184;48.774;8.918;2023-03-30T03:14:21;12.36;79.33
47434;SHT31;33184;48.774;8.918;2023-03-30T03:19:42;12.22;80.72
47434;SHT31;33184;48.774;8.918;2023-03-30T03:25:05;12.05;81.50
47434;SHT31;33184;48.774;8.918;2023-03-30T03:30:45;11.98;82.16
47434;SHT31;33184;48.774;8.918;2023-03-30T03:36:11;11.90;83.39
47434;SHT31;33184;48.774;8.918;2023-03-30T03:41:37;11.85;84.38
47434;SHT31;33184;48.774;8.918;2023-03-30T03:46:57;11.85;84.32
47434;SHT31;33184;48.774;8.918;2023-03-30T03:52:18;11.82;84.44
47434;SHT31;33184;48.774;8.918;2023-03-30T03:57:39;11.78;84.97
47434;SHT31;33184;48.774;8.918;2023-03-30T04:03:00;11.78;85.51
47434;SHT31;33184;48.774;8.918;2023-03-30T04:08:20;11.78;85.67
47434;SHT31;33184;48.774;8.918;2023-03-30T04:13:41;11.77;85.24
47434;SHT31;33184;48.774;8.918;2023-03-30T04:19:28;11.72;84.87
47434;SHT31;33184;48.774;8.918;2023-03-30T04:25:10;11.68;84.80
47434;SHT31;33184;48.774;8.918;2023-03-30T04:31:02;11.59;85.00
47434;SHT31;33184;48.774;8.918;2023-03-30T04:36:39;11.51;85.37
47434;SHT31;33184;48.774;8.918;2023-03-30T04:42:28;11.51;84.97
47434;SHT31;33184;48.774;8.918;2023-03-30T04:48:16;11.50;85.08
47434;SHT31;33184;48.774;8.918;2023-03-30T04:53:55;11.54;85.76
47434;SHT31;33184;48.774;8.918;2023-03-30T04:59:35;11.58;85.65
47434;SHT31;33184;48.774;8.918;2023-03-30T05:04:56;11.65;85.31
47434;SHT31;33184;48.774;8.918;2023-03-30T05:10:35;11.78;85.02
47434;SHT31;33184;48.774;8.918;2023-03-30T05:16:19;11.88;84.52
47434;SHT31;33184;48.774;8.918;2023-03-30T05:21:57;11.92;84.24
47434;SHT31;33184;48.774;8.918;2023-03-30T05:27:35;12.03;83.80
47434;SHT31;33184;48.774;8.918;2023-03-30T05:33:08;11.98;83.82
47434;SHT31;33184;48.774;8.918;2023-03-30T05:38:56;11.89;84.15
47434;SHT31;33184;48.774;8.918;2023-03-30T05:44:40;11.90;84.30
47434;SHT31;33184;48.774;8.918;2023-03-30T05:50:19;12.09;83.67
47434;SHT31;33184;48.774;8.918;2023-03-30T05:55:51;12.10;83.62
47434;SHT31;33184;48.774;8.918;2023-03-30T06:01:32;12.03;84.03
47434;SHT31;33184;48.774;8.918;2023-03-30T06:06:53;12.16;83.63
47434;SHT31;33184;48.774;8.918;2023-03-30T06:12:14;12.20;83.48
47434;SHT31;33184;48.774;8.918;2023-03-30T06:17:35;12.12;84.16
47434;SHT31;33184;48.774;8.918;2023-03-30T06:22:56;12.10;84.13
47434;SHT31;33184;48.774;8.918;2023-03-30T06:28:19;12.09;84.55
47434;SHT31;33184;48.774;8.918;2023-03-30T06:33:40;12.15;84.96
47434;SHT31;33184;48.774;8.918;2023-03-30T06:39:03;12.20;84.88
47434;SHT31;33184;48.774;8.918;2023-03-30T06:44:24;12.19;85.21
47434;SHT31;33184;48.774;8.918;2023-03-30T06:49:46;12.20;85.20
47434;SHT31;33184;48.774;8.918;2023-03-30T06:55:42;12.18;85.93
47434;SHT31;33184;48.774;8.918;2023-03-30T07:01:09;12.15;88.66
47434;SHT31;33184;48.774;8.918;2023-03-30T07:06:53;12.12;88.47
47434;SHT31;33184;48.774;8.918;2023-03-30T07:12:17;12.08;89.28
47434;SHT31;33184;48.774;8.918;2023-03-30T07:17:40;12.00;90.38
47434;SHT31;33184;48.774;8.918;2023-03-30T07:23:01;11.96;90.10
47434;SHT31;33184;48.774;8.918;2023-03-30T07:28:22;11.86;89.83
47434;SHT31;33184;48.774;8.918;2023-03-30T07:33:43;11.82;89.59
47434;SHT31;33184;48.774;8.918;2023-03-30T07:39:08;11.78;89.08
47434;SHT31;33184;48.774;8.918;2023-03-30T07:44:31;11.74;88.92
47434;SHT31;33184;48.774;8.918;2023-03-30T07:49:57;11.71;88.95
47434;SHT31;33184;48.774;8.918;2023-03-30T07:55:18;11.82;89.36
47434;SHT31;33184;48.774;8.918;2023-03-30T08:00:46;11.79;89.23
47434;SHT31;33184;48.774;8.918;2023-03-30T08:06:27;11.71;89.69
47434;SHT31;33184;48.774;8.918;2023-03-30T08:11:51;11.64;89.57
47434;SHT31;33184;48.774;8.918;2023-03-30T08:17:12;11.59;89.81
47434;SHT31;33184;48.774;8.918;2023-03-30T08:22:33;11.54;89.97
47434;SHT31;33184;48.774;8.918;2023-03-30T08:27:53;11.50;89.70
47434;SHT31;33184;48.774;8.918;2023-03-30T08:33:14;11.57;89.64
47434;SHT31;33184;48.774;8.918;2023-03-30T08:38:35;11.55;89.94
47434;SHT31;33184;48.774;8.918;2023-03-30T08:49:59;11.43;90.41
47434;SHT31;33184;48.774;8.918;2023-03-30T08:55:25;11.44;89.90
47434;SHT31;33184;48.774;8.918;2023-03-30T09:06:50;11.61;87.03
47434;SHT31;33184;48.774;8.918;2023-03-30T09:12:26;11.71;87.41
47434;SHT31;33184;48.774;8.918;2023-03-30T09:18:06;11.92;86.86
47434;SHT31;33184;48.774;8.918;2023-03-30T09:23:33;12.19;85.99
47434;SHT31;33184;48.774;8.918;2023-03-30T09:28:56;12.29;85.32
47434;SHT31;33184;48.774;8.918;2023-03-30T09:39:48;12.44;83.51
47434;SHT31;33184;48.774;8.918;2023-03-30T09:45:16;12.39;83.13
47434;SHT31;33184;48.774;8.918;2023-03-30T09:50:44;12.34;82.69
47434;SHT31;33184;48.774;8.918;2023-03-30T10:01:36;12.63;82.00
47434;SHT31;33184;48.774;8.918;2023-03-30T10:07:00;12.64;81.64
47434;SHT31;33184;48.774;8.918;2023-03-30T10:12:23;12.83;82.25
47434;SHT31;33184;48.774;8.918;2023-03-30T10:17:46;12.81;82.30
47434;SHT31;33184;48.774;8.918;2023-03-30T10:23:15;13.05;82.07
47434;SHT31;33184;48.774;8.918;2023-03-30T10:28:36;13.15;82.13
47434;SHT31;33184;48.774;8.918;2023-03-30T10:33:59;13.28;81.59
47434;SHT31;33184;48.774;8.918;2023-03-30T10:39:31;13.26;77.86
47434;SHT31;33184;48.774;8.918;2023-03-30T10:44:54;13.28;75.95
47434;SHT31;33184;48.774;8.918;2023-03-30T10:56:17;13.29;75.02
47434;SHT31;33184;48.774;8.918;2023-03-30T11:07:36;13.48;75.34
47434;SHT31;33184;48.774;8.918;2023-03-30T11:13:04;13.45;76.51
47434;SHT31;33184;48.774;8.918;2023-03-30T11:23:58;13.66;78.20
47434;SHT31;33184;48.774;8.918;2023-03-30T11:29:37;13.82;79.01
47434;SHT31;33184;48.774;8.918;2023-03-30T11:41:00;13.77;77.68
47434;SHT31;33184;48.774;8.918;2023-03-30T11:46:30;14.32;76.39
47434;SHT31;33184;48.774;8.918;2023-03-30T11:52:16;14.95;73.37
47434;SHT31;33184;48.774;8.918;2023-03-30T11:57:49;14.76;73.16
47434;SHT31;33184;48.774;8.918;2023-03-30T12:19:53;16.46;68.52
47434;SHT31;33184;48.774;8.918;2023-03-30T12:25:21;16.77;65.75
47434;SHT31;33184;48.774;8.918;2023-03-30T12:31:03;17.17;66.19
47434;SHT31;33184;48.774;8.918;2023-03-30T12:36:39;16.33;65.48
47434;SHT31;33184;48.774;8.918;2023-03-30T12:48:37;15.98;67.50
47434;SHT31;33184;48.774;8.918;2023-03-30T13:05:34;17.28;58.39
47434;SHT31;33184;48.774;8.918;2023-03-30T13:11:19;17.20;54.59
47434;SHT31;33184;48.774;8.918;2023-03-30T13:27:39;18.22;53.45
47434;SHT31;33184;48.774;8.918;2023-03-30T13:33:10;17.38;55.51
47434;SHT31;33184;48.774;8.918;2023-03-30T13:39:02;16.46;58.81
47434;SHT31;33184;48.774;8.918;2023-03-30T13:55:35;17.32;55.89
47434;SHT31;33184;48.774;8.918;2023-03-30T14:06:29;16.57;57.66
47434;SHT31;33184;48.774;8.918;2023-03-30T14:11:52;16.32;57.84
47434;SHT31;33184;48.774;8.918;2023-03-30T14:17:18;15.90;58.81
47434;SHT31;33184;48.774;8.918;2023-03-30T14:22:41;15.51;59.50
47434;SHT31;33184;48.774;8.918;2023-03-30T14:28:18;15.42;60.13
47434;SHT31;33184;48.774;8.918;2023-03-30T14:33:39;15.29;57.85
47434;SHT31;33184;48.774;8.918;2023-03-30T14:39:00;15.13;60.07
47434;SHT31;33184;48.774;8.918;2023-03-30T14:44:21;14.76;62.23
47434;SHT31;33184;48.774;8.918;2023-03-30T14:49:43;15.49;59.14
47434;SHT31;33184;48.774;8.918;2023-03-30T14:55:04;14.62;61.02
47434;SHT31;33184;48.774;8.918;2023-03-30T15:00:26;14.24;63.21
47434;SHT31;33184;48.774;8.918;2023-03-30T15:05:48;14.40;62.11
47434;SHT31;33184;48.774;8.918;2023-03-30T15:11:15;14.60;61.55
47434;SHT31;33184;48.774;8.918;2023-03-30T15:16:38;14.37;62.71
47434;SHT31;33184;48.774;8.918;2023-03-30T15:22:08;14.04;68.18
47434;SHT31;33184;48.774;8.918;2023-03-30T15:27:33;13.45;71.14
47434;SHT31;33184;48.774;8.918;2023-03-30T15:32:56;13.69;72.25
47434;SHT31;33184;48.774;8.918;2023-03-30T15:38:17;13.87;71.49
47434;SHT31;33184;48.774;8.918;2023-03-30T15:43:51;14.57;68.77
47434;SHT31;33184;48.774;8.918;2023-03-30T15:49:18;15.03;62.84
47434;SHT31;33184;48.774;8.918;2023-03-30T15:54:42;15.13;58.84
47434;SHT31;33184;48.774;8.918;2023-03-30T16:00:06;15.58;57.08
47434;SHT31;33184;48.774;8.918;2023-03-30T16:05:32;15.43;56.29
47434;SHT31;33184;48.774;8.918;2023-03-30T16:10:53;15.37;56.70
47434;SHT31;33184;48.774;8.918;2023-03-30T16:16:14;14.61;58.34
47434;SHT31;33184;48.774;8.918;2023-03-30T16:21:37;14.34;59.18
47434;SHT31;33184;48.774;8.918;2023-03-30T16:26:58;13.85;62.65
47434;SHT31;33184;48.774;8.918;2023-03-30T16:32:18;13.90;62.55
47434;SHT31;33184;48.774;8.918;2023-03-30T16:37:39;14.10;62.34
47434;SHT31;33184;48.774;8.918;2023-03-30T16:43:00;14.17;62.02
47434;SHT31;33184;48.774;8.918;2023-03-30T16:48:20;13.93;62.44
47434;SHT31;33184;48.774;8.918;2023-03-30T16:53:43;13.70;63.35
47434;SHT31;33184;48.774;8.918;2023-03-30T16:59:04;13.21;65.29
47434;SHT31;33184;48.774;8.918;2023-03-30T17:04:25;13.10;66.02
47434;SHT31;33184;48.774;8.918;2023-03-30T17:09:46;12.98;66.38
47434;SHT31;33184;48.774;8.918;2023-03-30T17:15:08;12.88;66.91
47434;SHT31;33184;48.774;8.918;2023-03-30T17:20:38;12.77;67.67
47434;SHT31;33184;48.774;8.918;2023-03-30T17:26:00;12.73;67.77
47434;SHT31;33184;48.774;8.918;2023-03-30T17:31:21;12.63;68.10
47434;SHT31;33184;48.774;8.918;2023-03-30T17:36:42;12.54;67.87
47434;SHT31;33184;48.774;8.918;2023-03-30T17:42:02;12.49;68.21
47434;SHT31;33184;48.774;8.918;2023-03-30T17:47:23;12.42;68.66
47434;SHT31;33184;48.774;8.918;2023-03-30T17:52:44;12.33;69.02
47434;SHT31;33184;48.774;8.918;2023-03-30T18:03:43;12.23;69.46
47434;SHT31;33184;48.774;8.918;2023-03-30T18:09:08;12.26;69.66
47434;SHT31;33184;48.774;8.918;2023-03-30T18:14:33;12.23;70.73
47434;SHT31;33184;48.774;8.918;2023-03-30T18:19:53;12.15;71.04
47434;SHT31;33184;48.774;8.918;2023-03-30T18:25:14;12.10;71.49
47434;SHT31;33184;48.774;8.918;2023-03-30T18:30:36;12.00;71.45
47434;SHT31;33184;48.774;8.918;2023-03-30T18:35:57;11.95;71.65
47434;SHT31;33184;48.774;8.918;2023-03-30T18:41:18;11.88;71.73
47434;SHT31;33184;48.774;8.918;2023-03-30T18:46:39;11.77;71.86
47434;SHT31;33184;48.774;8.918;2023-03-30T18:52:00;11.72;72.17
47434;SHT31;33184;48.774;8.918;2023-03-30T18:57:20;11.64;72.13
47434;SHT31;33184;48.774;8.918;2023-03-30T19:02:41;11.59;71.91
47434;SHT31;33184;48.774;8.918;2023-03-30T19:08:01;11.37;72.49
47434;SHT31;33184;48.774;8.918;2023-03-30T19:13:23;11.27;73.01
47434;SHT31;33184;48.774;8.918;2023-03-30T19:18:44;11.18;73.19
47434;SHT31;33184;48.774;8.918;2023-03-30T19:24:05;11.16;73.51
47434;SHT31;33184;48.774;8.918;2023-03-30T19:29:26;11.06;73.96
47434;SHT31;33184;48.774;8.918;2023-03-30T19:34:46;10.94;74.64
47434;SHT31;33184;48.774;8.918;2023-03-30T19:40:10;10.79;74.89
47434;SHT31;33184;48.774;8.918;2023-03-30T19:45:32;10.58;75.34
47434;SHT31;33184;48.774;8.918;2023-03-30T19:50:52;10.42;76.23
47434;SHT31;33184;48.774;8.918;2023-03-30T19:56:13;10.29;77.68
47434;SHT31;33184;48.774;8.918;2023-03-30T20:01:35;10.15;78.41
47434;SHT31;33184;48.774;8.918;2023-03-30T20:06:55;10.09;78.63
47434;SHT31;33184;48.774;8.918;2023-03-30T20:12:18;10.04;79.04
47434;SHT31;33184;48.774;8.918;2023-03-30T20:17:38;10.00;79.02
47434;SHT31;33184;48.774;8.918;2023-03-30T20:23:05;10.04;78.90
47434;SHT31;33184;48.774;8.918;2023-03-30T20:28:25;10.04;78.96
47434;SHT31;33184;48.774;8.918;2023-03-30T20:33:46;10.22;78.42
47434;SHT31;33184;48.774;8.918;2023-03-30T20:39:07;10.35;78.11
47434;SHT31;33184;48.774;8.918;2023-03-30T20:44:28;10.42;77.85
47434;SHT31;33184;48.774;8.918;2023-03-30T20:49:49;10.36;78.13
47434;SHT31;33184;48.774;8.918;2023-03-30T20:55:09;10.28;78.24
47434;SHT31;33184;48.774;8.918;2023-03-30T21:00:30;10.26;78.30
47434;SHT31;33184;48.774;8.918;2023-03-30T21:05:59;10.19;78.39
47434;SHT31;33184;48.774;8.918;2023-03-30T21:11:21;10.18;78.34
47434;SHT31;33184;48.774;8.918;2023-03-30T21:16:42;10.19;78.18
47434;SHT31;33184;48.774;8.918;2023-03-30T21:22:02;10.21;77.89
47434;SHT31;33184;48.774;8.918;2023-03-30T21:27:23;10.36;76.87
47434;SHT31;33184;48.774;8.918;2023-03-30T21:32:44;10.56;75.69
47434;SHT31;33184;48.774;8.918;2023-03-30T21:38:04;10.53;75.36
47434;SHT31;33184;48.774;8.918;2023-03-30T21:43:26;10.50;75.37
47434;SHT31;33184;48.774;8.918;2023-03-30T21:48:48;10.45;75.63
47434;SHT31;33184;48.774;8.918;2023-03-30T21:54:09;10.41;75.62
47434;SHT31;33184;48.774;8.918;2023-03-30T21:59:30;10.45;75.12
47434;SHT31;33184;48.774;8.918;2023-03-30T22:04:50;10.35;75.56
47434;SHT31;33184;48.774;8.918;2023-03-30T22:10:11;10.26;75.90
47434;SHT31;33184;48.774;8.918;2023-03-30T22:15:32;10.24;75.84
47434;SHT31;33184;48.774;8.918;2023-03-30T22:20:53;10.25;75.65
47434;SHT31;33184;48.774;8.918;2023-03-30T22:26:17;10.25;75.57
47434;SHT31;33184;48.774;8.918;2023-03-30T22:31:39;10.21;75.77
47434;SHT31;33184;48.774;8.918;2023-03-30T22:37:00;10.11;75.98
47434;SHT31;33184;48.774;8.918;2023-03-30T22:42:21;10.09;76.30
47434;SHT31;33184;48.774;8.918;2023-03-30T22:47:42;10.05;76.43
47434;SHT31;33184;48.774;8.918;2023-03-30T22:53:02;10.04;76.59
47434;SHT31;33184;48.774;8.918;2023-03-30T22:58:23;10.08;76.30
47434;SHT31;33184;48.774;8.918;2023-03-30T23:03:44;10.07;76.33
47434;SHT31;33184;48.774;8.918;2023-03-30T23:09:04;10.09;76.06
47434;SHT31;33184;48.774;8.918;2023-03-30T23:14:26;10.15;75.97
47434;SHT31;33184;48.774;8.918;2023-03-30T23:19:46;10.21;75.56
47434;SHT31;33184;48.774;8.918;2023-03-30T23:25:07;10.22;75.63
47434;SHT31;33184;48.774;8.918;2023-03-30T23:30:28;10.22;75.68
47434;SHT31;33184;48.774;8.918;2023-03-30T23:35:49;10.21;75.77
47434;SHT31;33184;48.774;8.918;2023-03-30T23:41:15;10.24;75.63
47434;SHT31;33184;48.774;8.918;2023-03-30T23:46:35;10.21;75.69
47434;SHT31;33184;48.774;8.918;2023-03-30T23:51:57;10.12;75.99
47434;SHT31;33184;48.774;8.918;2023-03-30T23:57:18;10.00;76.28
